sensor_id;sensor_type;location;lat;lon;timestamp;pressure;altitude;pressure_sealevel;temperature;humidity
78892;BME280;68368;51.728;5.248;2023-06-19T00:00:49;100775.83;;;21.10;55.73
78892;BME280;68368;51.728;5.248;2023-06-19T00:02:56;100775.00;;;21.02;55.73
78892;BME280;68368;51.728;5.248;2023-06-19T00:05:00;100771.55;;;20.96;56.13
78892;BME280;68368;51.728;5.248;2023-06-19T00:07:05;100770.23;;;20.91;56.42
78892;BME280;68368;51.728;5.248;2023-06-19T00:09:09;100777.02;;;20.85;56.52
78892;BME280;68368;51.728;5.248;2023-06-19T00:11:13;100779.44;;;20.80;56.59
78892;BME280;68368;51.728;5.248;2023-06-19T00:13:16;100780.06;;;20.75;56.68
78892;BME280;68368;51.728;5.248;2023-06-19T00:15:22;100785.40;;;20.70;56.67
78892;BME280;68368;51.728;5.248;2023-06-19T00:17:26;100783.45;;;20.66;56.88
78892;BME280;68368;51.728;5.248;2023-06-19T00:19:29;100782.42;;;20.62;57.06
78892;BME280;68368;51.728;5.248;2023-06-19T00:21:33;100784.05;;;20.58;57.28
78892;BME280;68368;51.728;5.248;2023-06-19T00:23:38;100789.67;;;20.54;57.33
78892;BME280;68368;51.728;5.248;2023-06-19T00:25:43;100798.11;;;20.51;57.56
78892;BME280;68368;51.728;5.248;2023-06-19T00:27:47;100795.26;;;20.47;57.68
78892;BME280;68368;51.728;5.248;2023-06-19T00:29:52;100797.95;;;20.43;57.69
78892;BME280;68368;51.728;5.248;2023-06-19T00:31:55;100796.79;;;20.38;57.94
78892;BME280;68368;51.728;5.248;2023-06-19T00:33:58;100789.94;;;20.34;58.24
78892;BME280;68368;51.728;5.248;2023-06-19T00:36:01;100788.62;;;20.32;58.30
78892;BME280;68368;51.728;5.248;2023-06-19T00:38:07;100793.57;;;20.31;58.51
78892;BME280;68368;51.728;5.248;2023-06-19T00:40:15;100799.31;;;20.27;58.51
78892;BME280;68368;51.728;5.248;2023-06-19T00:42:24;100803.80;;;20.24;58.88
78892;BME280;68368;51.728;5.248;2023-06-19T00:44:27;100803.54;;;20.22;59.18
78892;BME280;68368;51.728;5.248;2023-06-19T00:46:31;100809.26;;;20.20;59.16
78892;BME280;68368;51.728;5.248;2023-06-19T00:48:35;100810.62;;;20.18;59.47
78892;BME280;68368;51.728;5.248;2023-06-19T00:50:44;100812.73;;;20.15;59.88
78892;BME280;68368;51.728;5.248;2023-06-19T00:52:48;100813.95;;;20.12;60.26
78892;BME280;68368;51.728;5.248;2023-06-19T00:54:58;100820.70;;;20.11;60.20
78892;BME280;68368;51.728;5.248;2023-06-19T00:57:02;100817.84;;;20.06;60.02
78892;BME280;68368;51.728;5.248;2023-06-19T00:59:08;100827.58;;;20.03;60.48
78892;BME280;68368;51.728;5.248;2023-06-19T01:01:15;100829.36;;;20.00;60.50
78892;BME280;68368;51.728;5.248;2023-06-19T01:03:19;100832.22;;;19.97;60.57
78892;BME280;68368;51.728;5.248;2023-06-19T01:05:25;100828.77;;;19.93;60.74
78892;BME280;68368;51.728;5.248;2023-06-19T01:07:31;100835.63;;;19.90;60.86
78892;BME280;68368;51.728;5.248;2023-06-19T01:09:43;100838.48;;;19.86;61.12
78892;BME280;68368;51.728;5.248;2023-06-19T01:11:54;100847.69;;;19.82;61.33
78892;BME280;68368;51.728;5.248;2023-06-19T01:14:00;100842.84;;;19.78;61.72
78892;BME280;68368;51.728;5.248;2023-06-19T01:16:07;100845.00;;;19.74;62.12
78892;BME280;68368;51.728;5.248;2023-06-19T01:18:17;100845.60;;;19.70;61.91
78892;BME280;68368;51.728;5.248;2023-06-19T01:20:22;100844.53;;;19.65;62.57
78892;BME280;68368;51.728;5.248;2023-06-19T01:22:27;100853.11;;;19.62;62.68
78892;BME280;68368;51.728;5.248;2023-06-19T01:24:30;100851.70;;;19.58;62.80
78892;BME280;68368;51.728;5.248;2023-06-19T01:26:33;100854.05;;;19.54;63.44
78892;BME280;68368;51.728;5.248;2023-06-19T01:28:41;100858.90;;;19.50;63.44
78892;BME280;68368;51.728;5.248;2023-06-19T01:30:45;100860.53;;;19.46;63.39
78892;BME280;68368;51.728;5.248;2023-06-19T01:32:56;100858.05;;;19.42;64.02
78892;BME280;68368;51.728;5.248;2023-06-19T01:35:03;100856.61;;;19.38;64.82
78892;BME280;68368;51.728;5.248;2023-06-19T01:37:08;100856.24;;;19.34;65.12
78892;BME280;68368;51.728;5.248;2023-06-19T01:39:13;100863.36;;;19.32;65.57
78892;BME280;68368;51.728;5.248;2023-06-19T01:41:19;100863.98;;;19.30;65.79
78892;BME280;68368;51.728;5.248;2023-06-19T01:43:24;100865.48;;;19.29;65.91
78892;BME280;68368;51.728;5.248;2023-06-19T01:45:29;100862.72;;;19.27;66.07
78892;BME280;68368;51.728;5.248;2023-06-19T01:47:33;100859.03;;;19.24;66.51
78892;BME280;68368;51.728;5.248;2023-06-19T01:49:36;100860.14;;;19.23;66.75
78892;BME280;68368;51.728;5.248;2023-06-19T01:51:40;100854.99;;;19.22;67.06
78892;BME280;68368;51.728;5.248;2023-06-19T01:53:44;100859.33;;;19.21;67.35
78892;BME280;68368;51.728;5.248;2023-06-19T01:55:47;100858.68;;;19.24;67.83
78892;BME280;68368;51.728;5.248;2023-06-19T01:57:50;100864.63;;;19.28;67.54
78892;BME280;68368;51.728;5.248;2023-06-19T01:59:57;100858.17;;;19.31;67.64
78892;BME280;68368;51.728;5.248;2023-06-19T02:02:00;100856.79;;;19.34;67.48
78892;BME280;68368;51.728;5.248;2023-06-19T02:04:04;100858.23;;;19.38;67.29
78892;BME280;68368;51.728;5.248;2023-06-19T02:06:07;100858.64;;;19.40;67.46
78892;BME280;68368;51.728;5.248;2023-06-19T02:08:11;100866.77;;;19.43;67.43
78892;BME280;68368;51.728;5.248;2023-06-19T02:10:19;100867.55;;;19.46;67.74
78892;BME280;68368;51.728;5.248;2023-06-19T02:12:22;100865.58;;;19.50;67.47
78892;BME280;68368;51.728;5.248;2023-06-19T02:14:26;100869.58;;;19.53;67.46
78892;BME280;68368;51.728;5.248;2023-06-19T02:16:30;100870.58;;;19.55;67.32
78892;BME280;68368;51.728;5.248;2023-06-19T02:18:33;100872.67;;;19.56;67.56
78892;BME280;68368;51.728;5.248;2023-06-19T02:20:36;100870.52;;;19.56;67.61
78892;BME280;68368;51.728;5.248;2023-06-19T02:22:40;100866.23;;;19.56;67.58
78892;BME280;68368;51.728;5.248;2023-06-19T02:24:44;100865.58;;;19.54;67.63
78892;BME280;68368;51.728;5.248;2023-06-19T02:26:47;100874.29;;;19.53;67.84
78892;BME280;68368;51.728;5.248;2023-06-19T02:28:50;100877.45;;;19.50;67.82
78892;BME280;68368;51.728;5.248;2023-06-19T02:30:55;100875.45;;;19.47;67.98
78892;BME280;68368;51.728;5.248;2023-06-19T02:32:58;100878.80;;;19.48;67.94
78892;BME280;68368;51.728;5.248;2023-06-19T02:35:04;100879.71;;;19.48;67.94
78892;BME280;68368;51.728;5.248;2023-06-19T02:37:08;100883.20;;;19.47;68.12
78892;BME280;68368;51.728;5.248;2023-06-19T02:39:12;100883.08;;;19.45;68.55
78892;BME280;68368;51.728;5.248;2023-06-19T02:41:15;100883.42;;;19.42;68.74
78892;BME280;68368;51.728;5.248;2023-06-19T02:43:19;100886.71;;;19.37;68.53
78892;BME280;68368;51.728;5.248;2023-06-19T02:45:22;100886.27;;;19.31;69.14
78892;BME280;68368;51.728;5.248;2023-06-19T02:47:28;100885.45;;;19.25;68.89
78892;BME280;68368;51.728;5.248;2023-06-19T02:49:34;100882.67;;;19.19;68.97
78892;BME280;68368;51.728;5.248;2023-06-19T02:51:38;100884.89;;;19.13;69.21
78892;BME280;68368;51.728;5.248;2023-06-19T02:53:41;100893.52;;;19.10;69.50
78892;BME280;68368;51.728;5.248;2023-06-19T02:55:44;100887.55;;;19.06;70.06
78892;BME280;68368;51.728;5.248;2023-06-19T02:57:48;100891.77;;;19.04;70.07
78892;BME280;68368;51.728;5.248;2023-06-19T02:59:52;100889.34;;;19.03;70.03
78892;BME280;68368;51.728;5.248;2023-06-19T03:01:55;100889.48;;;19.04;70.33
78892;BME280;68368;51.728;5.248;2023-06-19T03:03:59;100892.55;;;19.03;70.39
78892;BME280;68368;51.728;5.248;2023-06-19T03:06:03;100893.11;;;19.03;70.87
78892;BME280;68368;51.728;5.248;2023-06-19T03:08:09;100897.30;;;19.02;70.52
78892;BME280;68368;51.728;5.248;2023-06-19T03:10:13;100900.95;;;19.00;70.53
78892;BME280;68368;51.728;5.248;2023-06-19T03:12:17;100902.27;;;18.99;70.62
78892;BME280;68368;51.728;5.248;2023-06-19T03:14:21;100904.58;;;19.00;71.14
78892;BME280;68368;51.728;5.248;2023-06-19T03:16:26;100903.99;;;19.01;71.30
78892;BME280;68368;51.728;5.248;2023-06-19T03:18:29;100910.95;;;19.02;71.13
78892;BME280;68368;51.728;5.248;2023-06-19T03:20:35;100911.39;;;19.04;71.35
78892;BME280;68368;51.728;5.248;2023-06-19T03:22:40;100916.15;;;19.07;71.32
78892;BME280;68368;51.728;5.248;2023-06-19T03:24:43;100919.52;;;19.08;71.27
78892;BME280;68368;51.728;5.248;2023-06-19T03:26:47;100919.58;;;19.10;71.23
78892;BME280;68368;51.728;5.248;2023-06-19T03:28:50;100922.58;;;19.12;71.41
78892;BME280;68368;51.728;5.248;2023-06-19T03:30:54;100924.68;;;19.13;71.40
78892;BME280;68368;51.728;5.248;2023-06-19T03:32:58;100928.02;;;19.15;71.78
78892;BME280;68368;51.728;5.248;2023-06-19T03:35:02;100927.23;;;19.16;71.59
78892;BME280;68368;51.728;5.248;2023-06-19T03:37:07;100933.96;;;19.19;71.59
78892;BME280;68368;51.728;5.248;2023-06-19T03:39:13;100927.76;;;19.20;71.60
78892;BME280;68368;51.728;5.248;2023-06-19T03:41:18;100928.55;;;19.23;71.44
78892;BME280;68368;51.728;5.248;2023-06-19T03:43:22;100931.91;;;19.25;71.89
78892;BME280;68368;51.728;5.248;2023-06-19T03:45:25;100938.69;;;19.26;71.91
78892;BME280;68368;51.728;5.248;2023-06-19T03:47:29;100939.23;;;19.26;71.75
78892;BME280;68368;51.728;5.248;2023-06-19T03:49:32;100941.44;;;19.29;71.90
78892;BME280;68368;51.728;5.248;2023-06-19T03:51:36;100942.98;;;19.30;72.28
78892;BME280;68368;51.728;5.248;2023-06-19T03:53:39;100948.53;;;19.31;72.51
78892;BME280;68368;51.728;5.248;2023-06-19T03:55:43;100947.85;;;19.30;72.75
78892;BME280;68368;51.728;5.248;2023-06-19T03:57:47;100957.20;;;19.31;72.57
78892;BME280;68368;51.728;5.248;2023-06-19T03:59:51;100955.61;;;19.30;72.78
78892;BME280;68368;51.728;5.248;2023-06-19T04:01:54;100954.98;;;19.28;72.78
78892;BME280;68368;51.728;5.248;2023-06-19T04:03:57;100958.55;;;19.29;72.73
78892;BME280;68368;51.728;5.248;2023-06-19T04:06:01;100963.77;;;19.29;72.67
78892;BME280;68368;51.728;5.248;2023-06-19T04:08:08;100964.11;;;19.29;72.75
78892;BME280;68368;51.728;5.248;2023-06-19T04:10:12;100965.59;;;19.28;72.64
78892;BME280;68368;51.728;5.248;2023-06-19T04:12:16;100971.90;;;19.28;72.80
78892;BME280;68368;51.728;5.248;2023-06-19T04:14:20;100981.46;;;19.27;73.22
78892;BME280;68368;51.728;5.248;2023-06-19T04:16:23;100988.81;;;19.28;73.99
78892;BME280;68368;51.728;5.248;2023-06-19T04:18:29;100995.33;;;19.27;75.17
78892;BME280;68368;51.728;5.248;2023-06-19T04:20:32;100997.16;;;19.22;75.57
78892;BME280;68368;51.728;5.248;2023-06-19T04:22:36;100993.65;;;19.16;76.24
78892;BME280;68368;51.728;5.248;2023-06-19T04:24:39;100993.72;;;19.10;76.54
78892;BME280;68368;51.728;5.248;2023-06-19T04:26:42;100995.25;;;19.04;76.59
78892;BME280;68368;51.728;5.248;2023-06-19T04:28:48;101001.88;;;19.00;76.64
78892;BME280;68368;51.728;5.248;2023-06-19T04:30:51;101000.27;;;19.00;76.81
78892;BME280;68368;51.728;5.248;2023-06-19T04:32:56;101004.23;;;19.04;77.00
78892;BME280;68368;51.728;5.248;2023-06-19T04:34:59;101005.80;;;19.10;76.75
78892;BME280;68368;51.728;5.248;2023-06-19T04:37:05;101009.83;;;19.16;76.72
78892;BME280;68368;51.728;5.248;2023-06-19T04:39:10;101011.77;;;19.21;76.77
78892;BME280;68368;51.728;5.248;2023-06-19T04:41:13;101017.25;;;19.24;76.93
78892;BME280;68368;51.728;5.248;2023-06-19T04:43:17;101017.58;;;19.29;76.67
78892;BME280;68368;51.728;5.248;2023-06-19T04:45:21;101014.86;;;19.33;76.74
78892;BME280;68368;51.728;5.248;2023-06-19T04:47:25;101016.18;;;19.40;76.62
78892;BME280;68368;51.728;5.248;2023-06-19T04:49:30;101019.67;;;19.47;76.05
78892;BME280;68368;51.728;5.248;2023-06-19T04:51:34;101022.23;;;19.50;76.13
78892;BME280;68368;51.728;5.248;2023-06-19T04:53:37;101028.70;;;19.50;76.05
78892;BME280;68368;51.728;5.248;2023-06-19T04:55:43;101031.02;;;19.51;76.01
78892;BME280;68368;51.728;5.248;2023-06-19T04:57:47;101032.35;;;19.49;76.21
78892;BME280;68368;51.728;5.248;2023-06-19T04:59:50;101033.10;;;19.48;76.04
78892;BME280;68368;51.728;5.248;2023-06-19T05:01:53;101033.11;;;19.48;76.10
78892;BME280;68368;51.728;5.248;2023-06-19T05:03:57;101027.83;;;19.50;75.98
78892;BME280;68368;51.728;5.248;2023-06-19T05:06:00;101026.95;;;19.53;75.75
78892;BME280;68368;51.728;5.248;2023-06-19T05:08:04;101021.42;;;19.60;75.70
78892;BME280;68368;51.728;5.248;2023-06-19T05:10:08;101020.52;;;19.73;75.25
78892;BME280;68368;51.728;5.248;2023-06-19T05:12:12;101028.08;;;19.97;74.68
78892;BME280;68368;51.728;5.248;2023-06-19T05:14:18;101030.58;;;20.24;73.97
78892;BME280;68368;51.728;5.248;2023-06-19T05:16:22;101026.95;;;20.92;72.71
78892;BME280;68368;51.728;5.248;2023-06-19T05:18:26;101031.81;;;21.35;71.44
78892;BME280;68368;51.728;5.248;2023-06-19T05:20:29;101030.41;;;21.45;71.21
78892;BME280;68368;51.728;5.248;2023-06-19T05:22:32;101026.47;;;21.51;70.77
78892;BME280;68368;51.728;5.248;2023-06-19T05:24:36;101029.45;;;21.53;70.37
78892;BME280;68368;51.728;5.248;2023-06-19T05:26:39;101035.86;;;21.55;69.89
78892;BME280;68368;51.728;5.248;2023-06-19T05:28:43;101034.55;;;21.52;69.50
78892;BME280;68368;51.728;5.248;2023-06-19T05:30:47;101040.05;;;21.51;69.56
78892;BME280;68368;51.728;5.248;2023-06-19T05:32:51;101039.73;;;21.56;68.90
78892;BME280;68368;51.728;5.248;2023-06-19T05:34:55;101037.59;;;21.56;67.66
78892;BME280;68368;51.728;5.248;2023-06-19T05:36:59;101043.29;;;21.51;67.35
78892;BME280;68368;51.728;5.248;2023-06-19T05:39:02;101042.23;;;21.57;66.56
78892;BME280;68368;51.728;5.248;2023-06-19T05:41:07;101044.27;;;21.70;66.28
78892;BME280;68368;51.728;5.248;2023-06-19T05:43:11;101040.58;;;21.78;65.32
78892;BME280;68368;51.728;5.248;2023-06-19T05:45:16;101043.69;;;21.84;64.90
78892;BME280;68368;51.728;5.248;2023-06-19T05:47:19;101040.55;;;21.95;64.33
78892;BME280;68368;51.728;5.248;2023-06-19T05:49:26;101047.83;;;22.79;62.31
78892;BME280;68368;51.728;5.248;2023-06-19T05:51:30;101051.62;;;23.50;60.10
78892;BME280;68368;51.728;5.248;2023-06-19T05:53:35;101048.95;;;23.55;59.51
78892;BME280;68368;51.728;5.248;2023-06-19T05:55:39;101056.12;;;23.44;59.23
78892;BME280;68368;51.728;5.248;2023-06-19T05:57:42;101056.16;;;23.22;59.22
78892;BME280;68368;51.728;5.248;2023-06-19T05:59:47;101051.94;;;22.99;59.24
78892;BME280;68368;51.728;5.248;2023-06-19T06:01:50;101063.02;;;22.79;59.46
78892;BME280;68368;51.728;5.248;2023-06-19T06:03:53;101065.36;;;22.67;59.35
78892;BME280;68368;51.728;5.248;2023-06-19T06:05:56;101068.42;;;22.64;57.95
78892;BME280;68368;51.728;5.248;2023-06-19T06:08:01;101072.05;;;22.86;57.03
78892;BME280;68368;51.728;5.248;2023-06-19T06:10:06;101075.56;;;23.91;54.47
78892;BME280;68368;51.728;5.248;2023-06-19T06:12:12;101075.70;;;25.05;51.08
78892;BME280;68368;51.728;5.248;2023-06-19T06:14:16;101080.73;;;25.65;49.45
78892;BME280;68368;51.728;5.248;2023-06-19T06:16:22;101081.95;;;25.79;48.50
78892;BME280;68368;51.728;5.248;2023-06-19T06:18:26;101088.81;;;25.67;48.23
78892;BME280;68368;51.728;5.248;2023-06-19T06:20:30;101095.58;;;26.31;46.71
78892;BME280;68368;51.728;5.248;2023-06-19T06:22:33;101099.67;;;27.31;44.71
78892;BME280;68368;51.728;5.248;2023-06-19T06:24:37;101108.23;;;28.36;43.10
78892;BME280;68368;51.728;5.248;2023-06-19T06:26:40;101107.73;;;29.10;39.82
78892;BME280;68368;51.728;5.248;2023-06-19T06:28:43;101110.75;;;29.43;39.38
78892;BME280;68368;51.728;5.248;2023-06-19T06:30:49;101109.05;;;29.89;38.72
78892;BME280;68368;51.728;5.248;2023-06-19T06:32:53;101115.23;;;29.74;37.91
78892;BME280;68368;51.728;5.248;2023-06-19T06:34:57;101114.50;;;29.68;38.68
78892;BME280;68368;51.728;5.248;2023-06-19T06:37:01;101113.92;;;29.72;38.30
78892;BME280;68368;51.728;5.248;2023-06-19T06:39:06;101117.29;;;30.51;37.21
78892;BME280;68368;51.728;5.248;2023-06-19T06:41:09;101117.13;;;31.33;36.04
78892;BME280;68368;51.728;5.248;2023-06-19T06:43:13;101116.91;;;31.17;35.96
78892;BME280;68368;51.728;5.248;2023-06-19T06:45:16;101122.52;;;30.86;35.91
78892;BME280;68368;51.728;5.248;2023-06-19T06:47:19;101126.05;;;30.31;36.76
78892;BME280;68368;51.728;5.248;2023-06-19T06:49:23;101125.59;;;29.94;36.81
78892;BME280;68368;51.728;5.248;2023-06-19T06:51:26;101140.45;;;29.44;37.60
78892;BME280;68368;51.728;5.248;2023-06-19T06:53:29;101138.44;;;28.94;38.53
78892;BME280;68368;51.728;5.248;2023-06-19T06:55:32;101144.92;;;28.55;39.09
78892;BME280;68368;51.728;5.248;2023-06-19T06:57:36;101142.78;;;28.24;39.71
78892;BME280;68368;51.728;5.248;2023-06-19T06:59:41;101145.95;;;28.26;39.97
78892;BME280;68368;51.728;5.248;2023-06-19T07:01:44;101152.40;;;27.85;40.25
78892;BME280;68368;51.728;5.248;2023-06-19T07:03:47;101147.70;;;27.82;40.39
78892;BME280;68368;51.728;5.248;2023-06-19T07:05:52;101151.39;;;28.83;39.33
78892;BME280;68368;51.728;5.248;2023-06-19T07:07:55;101155.55;;;29.67;37.68
78892;BME280;68368;51.728;5.248;2023-06-19T07:09:59;101153.29;;;30.31;36.44
78892;BME280;68368;51.728;5.248;2023-06-19T07:12:03;101158.79;;;30.36;36.36
78892;BME280;68368;51.728;5.248;2023-06-19T07:14:09;101155.21;;;30.67;35.71
78892;BME280;68368;51.728;5.248;2023-06-19T07:16:13;101159.08;;;30.43;35.49
78892;BME280;68368;51.728;5.248;2023-06-19T07:18:17;101163.63;;;30.13;35.88
78892;BME280;68368;51.728;5.248;2023-06-19T07:20:20;101164.41;;;30.34;35.51
78892;BME280;68368;51.728;5.248;2023-06-19T07:22:24;101167.52;;;30.19;35.66
78892;BME280;68368;51.728;5.248;2023-06-19T07:24:29;101171.20;;;30.19;35.59
78892;BME280;68368;51.728;5.248;2023-06-19T07:26:34;101175.27;;;29.85;35.81
78892;BME280;68368;51.728;5.248;2023-06-19T07:28:38;101174.20;;;29.95;36.15
78892;BME280;68368;51.728;5.248;2023-06-19T07:30:42;101171.77;;;30.52;35.50
78892;BME280;68368;51.728;5.248;2023-06-19T07:32:50;101176.06;;;31.05;34.89
78892;BME280;68368;51.728;5.248;2023-06-19T07:34:55;101179.66;;;31.43;34.34
78892;BME280;68368;51.728;5.248;2023-06-19T07:37:00;101184.41;;;31.85;33.41
78892;BME280;68368;51.728;5.248;2023-06-19T07:39:04;101188.46;;;31.71;33.75
78892;BME280;68368;51.728;5.248;2023-06-19T07:41:08;101189.08;;;31.78;33.58
78892;BME280;68368;51.728;5.248;2023-06-19T07:43:12;101191.41;;;32.25;33.02
78892;BME280;68368;51.728;5.248;2023-06-19T07:45:16;101193.37;;;32.49;32.38
78892;BME280;68368;51.728;5.248;2023-06-19T07:47:19;101191.59;;;32.29;32.37
78892;BME280;68368;51.728;5.248;2023-06-19T07:49:22;101193.14;;;31.93;32.87
78892;BME280;68368;51.728;5.248;2023-06-19T07:51:26;101195.59;;;31.50;33.67
78892;BME280;68368;51.728;5.248;2023-06-19T07:53:30;101189.36;;;31.38;34.41
78892;BME280;68368;51.728;5.248;2023-06-19T07:55:34;101192.59;;;31.28;34.24
78892;BME280;68368;51.728;5.248;2023-06-19T07:57:39;101196.35;;;30.83;34.75
78892;BME280;68368;51.728;5.248;2023-06-19T07:59:44;101196.16;;;30.44;35.28
78892;BME280;68368;51.728;5.248;2023-06-19T08:01:47;101201.94;;;30.07;36.22
78892;BME280;68368;51.728;5.248;2023-06-19T08:03:50;101207.92;;;29.62;37.28
78892;BME280;68368;51.728;5.248;2023-06-19T08:05:54;101214.54;;;29.36;37.33
78892;BME280;68368;51.728;5.248;2023-06-19T08:07:59;101215.48;;;29.42;37.30
78892;BME280;68368;51.728;5.248;2023-06-19T08:10:03;101219.66;;;29.62;37.14
78892;BME280;68368;51.728;5.248;2023-06-19T08:12:08;101216.45;;;30.06;36.35
78892;BME280;68368;51.728;5.248;2023-06-19T08:14:12;101217.10;;;29.99;35.68
78892;BME280;68368;51.728;5.248;2023-06-19T08:16:15;101214.33;;;29.95;35.69
78892;BME280;68368;51.728;5.248;2023-06-19T08:18:18;101215.36;;;29.97;35.62
78892;BME280;68368;51.728;5.248;2023-06-19T08:20:22;101217.81;;;30.07;35.18
78892;BME280;68368;51.728;5.248;2023-06-19T08:22:25;101221.38;;;30.44;35.09
78892;BME280;68368;51.728;5.248;2023-06-19T08:24:30;101213.14;;;31.06;33.93
78892;BME280;68368;51.728;5.248;2023-06-19T08:26:33;101217.81;;;31.45;33.50
78892;BME280;68368;51.728;5.248;2023-06-19T08:28:36;101221.20;;;31.78;33.20
78892;BME280;68368;51.728;5.248;2023-06-19T08:30:45;101226.71;;;31.94;32.64
78892;BME280;68368;51.728;5.248;2023-06-19T08:32:51;101227.31;;;31.94;32.41
78892;BME280;68368;51.728;5.248;2023-06-19T08:34:58;101224.10;;;31.81;32.21
78892;BME280;68368;51.728;5.248;2023-06-19T08:37:01;101222.13;;;31.78;32.46
78892;BME280;68368;51.728;5.248;2023-06-19T08:39:05;101218.27;;;31.90;32.34
78892;BME280;68368;51.728;5.248;2023-06-19T08:41:09;101220.69;;;31.96;32.64
78892;BME280;68368;51.728;5.248;2023-06-19T08:43:13;101218.13;;;32.09;31.91
78892;BME280;68368;51.728;5.248;2023-06-19T08:45:19;101218.00;;;32.18;31.87
78892;BME280;68368;51.728;5.248;2023-06-19T08:47:30;101221.54;;;32.39;31.53
78892;BME280;68368;51.728;5.248;2023-06-19T08:49:35;101224.79;;;32.45;31.39
78892;BME280;68368;51.728;5.248;2023-06-19T08:51:39;101226.35;;;32.36;31.72
78892;BME280;68368;51.728;5.248;2023-06-19T08:54:00;101223.83;;;32.40;31.76
78892;BME280;68368;51.728;5.248;2023-06-19T08:56:04;101226.23;;;32.34;31.79
78892;BME280;68368;51.728;5.248;2023-06-19T08:58:11;101229.85;;;32.19;31.88
78892;BME280;68368;51.728;5.248;2023-06-19T09:00:24;101225.98;;;32.04;31.93
78892;BME280;68368;51.728;5.248;2023-06-19T09:02:40;101231.66;;;31.80;31.86
78892;BME280;68368;51.728;5.248;2023-06-19T09:04:44;101239.14;;;31.59;32.43
78892;BME280;68368;51.728;5.248;2023-06-19T09:06:53;101239.92;;;31.41;32.63
78892;BME280;68368;51.728;5.248;2023-06-19T09:09:00;101238.02;;;31.33;32.59
78892;BME280;68368;51.728;5.248;2023-06-19T09:11:04;101234.52;;;31.31;32.91
78892;BME280;68368;51.728;5.248;2023-06-19T09:13:08;101236.56;;;31.29;33.03
78892;BME280;68368;51.728;5.248;2023-06-19T09:15:15;101240.23;;;31.40;33.16
78892;BME280;68368;51.728;5.248;2023-06-19T09:17:21;101249.61;;;31.61;32.96
78892;BME280;68368;51.728;5.248;2023-06-19T09:19:27;101251.77;;;31.89;32.37
78892;BME280;68368;51.728;5.248;2023-06-19T09:21:30;101258.16;;;32.27;32.15
78892;BME280;68368;51.728;5.248;2023-06-19T09:23:34;101258.61;;;32.68;31.12
78892;BME280;68368;51.728;5.248;2023-06-19T09:25:47;101258.77;;;33.10;30.73
78892;BME280;68368;51.728;5.248;2023-06-19T09:27:50;101257.13;;;33.60;30.11
78892;BME280;68368;51.728;5.248;2023-06-19T09:29:54;101256.90;;;33.96;29.37
78892;BME280;68368;51.728;5.248;2023-06-19T09:31:57;101257.14;;;34.24;28.84
78892;BME280;68368;51.728;5.248;2023-06-19T09:34:00;101269.04;;;34.50;28.75
78892;BME280;68368;51.728;5.248;2023-06-19T09:36:05;101266.19;;;34.65;28.13
78892;BME280;68368;51.728;5.248;2023-06-19T09:38:09;101267.40;;;34.64;27.90
78892;BME280;68368;51.728;5.248;2023-06-19T09:40:14;101270.92;;;34.69;27.50
78892;BME280;68368;51.728;5.248;2023-06-19T09:42:19;101277.65;;;34.66;27.06
78892;BME280;68368;51.728;5.248;2023-06-19T09:44:25;101284.73;;;34.57;27.09
78892;BME280;68368;51.728;5.248;2023-06-19T09:46:32;101282.02;;;34.40;27.21
78892;BME280;68368;51.728;5.248;2023-06-19T09:48:44;101271.02;;;34.19;27.38
78892;BME280;68368;51.728;5.248;2023-06-19T09:51:06;101270.05;;;33.93;28.01
78892;BME280;68368;51.728;5.248;2023-06-19T09:53:13;101276.31;;;33.72;27.82
78892;BME280;68368;51.728;5.248;2023-06-19T09:55:17;101271.26;;;33.52;28.27
78892;BME280;68368;51.728;5.248;2023-06-19T09:57:23;101274.91;;;33.34;28.66
78892;BME280;68368;51.728;5.248;2023-06-19T09:59:26;101275.45;;;33.27;28.80
78892;BME280;68368;51.728;5.248;2023-06-19T10:01:32;101280.15;;;33.13;29.01
78892;BME280;68368;51.728;5.248;2023-06-19T10:03:38;101276.80;;;32.93;29.50
78892;BME280;68368;51.728;5.248;2023-06-19T10:05:43;101277.56;;;32.89;29.98
78892;BME280;68368;51.728;5.248;2023-06-19T10:07:47;101281.77;;;32.81;30.03
78892;BME280;68368;51.728;5.248;2023-06-19T10:10:04;101279.61;;;32.86;29.70
78892;BME280;68368;51.728;5.248;2023-06-19T10:12:14;101279.06;;;33.07;29.98
78892;BME280;68368;51.728;5.248;2023-06-19T10:14:24;101269.35;;;33.39;28.76
78892;BME280;68368;51.728;5.248;2023-06-19T10:16:27;101274.00;;;33.47;28.34
78892;BME280;68368;51.728;5.248;2023-06-19T10:18:32;101273.09;;;33.53;28.34
78892;BME280;68368;51.728;5.248;2023-06-19T10:20:54;101280.59;;;33.62;28.56
78892;BME280;68368;51.728;5.248;2023-06-19T10:23:05;101273.52;;;33.79;27.88
78892;BME280;68368;51.728;5.248;2023-06-19T10:25:09;101279.62;;;33.87;27.41
78892;BME280;68368;51.728;5.248;2023-06-19T10:27:33;101273.61;;;33.73;27.59
78892;BME280;68368;51.728;5.248;2023-06-19T10:29:43;101275.21;;;33.75;27.49
78892;BME280;68368;51.728;5.248;2023-06-19T10:31:47;101278.10;;;33.71;27.91
78892;BME280;68368;51.728;5.248;2023-06-19T10:33:51;101276.32;;;33.59;27.67
78892;BME280;68368;51.728;5.248;2023-06-19T10:35:57;101277.44;;;33.66;27.94
78892;BME280;68368;51.728;5.248;2023-06-19T10:38:01;101269.41;;;33.42;27.18
78892;BME280;68368;51.728;5.248;2023-06-19T10:40:06;101280.30;;;32.91;28.26
78892;BME280;68368;51.728;5.248;2023-06-19T10:42:20;101284.59;;;32.58;28.60
78892;BME280;68368;51.728;5.248;2023-06-19T10:44:26;101283.08;;;32.41;29.15
78892;BME280;68368;51.728;5.248;2023-06-19T10:46:32;101284.52;;;32.32;29.33
78892;BME280;68368;51.728;5.248;2023-06-19T10:48:36;101281.92;;;32.28;29.48
78892;BME280;68368;51.728;5.248;2023-06-19T10:50:44;101284.77;;;32.37;29.59
78892;BME280;68368;51.728;5.248;2023-06-19T10:52:48;101276.23;;;32.51;29.16